sensor_id;sensor_type;location;lat;lon;timestamp;P1;durP1;ratioP1;P2;durP2;ratioP2
25123;SDS011;13104;51.030;4.686;2023-03-01T00:01:58;17.08;;;11.13;;
25123;SDS011;13104;51.030;4.686;2023-03-01T00:04:24;16.90;;;10.90;;
25123;SDS011;13104;51.030;4.686;2023-03-01T00:06:52;19.85;;;10.80;;
25123;SDS011;13104;51.030;4.686;2023-03-01T00:09:18;16.33;;;10.32;;
25123;SDS011;13104;51.030;4.686;2023-03-01T00:11:44;14.82;;;10.70;;
25123;SDS011;13104;51.030;4.686;2023-03-01T00:14:10;20.05;;;10.68;;
25123;SDS011;13104;51.030;4.686;2023-03-01T00:16:37;19.45;;;10.38;;
25123;SDS011;13104;51.030;4.686;2023-03-01T00:19:04;16.67;;;9.80;;
25123;SDS011;13104;51.030;4.686;2023-03-01T00:21:30;18.98;;;10.68;;
25123;SDS011;13104;51.030;4.686;2023-03-01T00:23:57;14.30;;;10.27;;
25123;SDS011;13104;51.030;4.686;2023-03-01T00:26:24;22.65;;;10.73;;
25123;SDS011;13104;51.030;4.686;2023-03-01T00:28:51;23.67;;;10.95;;
25123;SDS011;13104;51.030;4.686;2023-03-01T00:31:18;20.73;;;10.32;;
25123;SDS011;13104;51.030;4.686;2023-03-01T00:33:45;16.80;;;10.00;;
25123;SDS011;13104;51.030;4.686;2023-03-01T00:36:12;18.05;;;9.95;;
25123;SDS011;13104;51.030;4.686;2023-03-01T00:38:40;16.77;;;10.10;;
25123;SDS011;13104;51.030;4.686;2023-03-01T00:41:07;19.92;;;10.43;;
25123;SDS011;13104;51.030;4.686;2023-03-01T00:43:34;20.73;;;9.88;;
25123;SDS011;13104;51.030;4.686;2023-03-01T00:46:17;15.93;;;10.02;;
25123;SDS011;13104;51.030;4.686;2023-03-01T00:48:44;15.93;;;9.93;;
25123;SDS011;13104;51.030;4.686;2023-03-01T00:51:12;18.70;;;10.65;;
25123;SDS011;13104;51.030;4.686;2023-03-01T00:53:38;17.77;;;10.07;;
25123;SDS011;13104;51.030;4.686;2023-03-01T00:56:05;17.80;;;9.90;;
25123;SDS011;13104;51.030;4.686;2023-03-01T00:58:31;21.13;;;11.23;;
25123;SDS011;13104;51.030;4.686;2023-03-01T01:01:00;19.98;;;10.32;;
25123;SDS011;13104;51.030;4.686;2023-03-01T01:03:26;18.50;;;10.82;;
25123;SDS011;13104;51.030;4.686;2023-03-01T01:05:53;15.73;;;10.07;;
25123;SDS011;13104;51.030;4.686;2023-03-01T01:08:20;15.90;;;9.98;;
25123;SDS011;13104;51.030;4.686;2023-03-01T01:10:46;19.88;;;11.18;;
25123;SDS011;13104;51.030;4.686;2023-03-01T01:13:13;19.55;;;10.70;;
25123;SDS011;13104;51.030;4.686;2023-03-01T01:15:39;17.88;;;10.57;;
25123;SDS011;13104;51.030;4.686;2023-03-01T01:18:05;20.27;;;10.40;;
25123;SDS011;13104;51.030;4.686;2023-03-01T01:20:32;22.65;;;10.38;;
25123;SDS011;13104;51.030;4.686;2023-03-01T01:22:58;16.80;;;10.20;;
25123;SDS011;13104;51.030;4.686;2023-03-01T01:25:24;17.15;;;10.10;;
25123;SDS011;13104;51.030;4.686;2023-03-01T01:27:51;17.83;;;9.88;;
25123;SDS011;13104;51.030;4.686;2023-03-01T01:30:17;17.60;;;9.90;;
25123;SDS011;13104;51.030;4.686;2023-03-01T01:32:43;17.58;;;10.35;;
25123;SDS011;13104;51.030;4.686;2023-03-01T01:35:09;17.58;;;10.20;;
25123;SDS011;13104;51.030;4.686;2023-03-01T01:37:35;18.33;;;10.32;;
25123;SDS011;13104;51.030;4.686;2023-03-01T01:40:01;17.58;;;9.73;;
25123;SDS011;13104;51.030;4.686;2023-03-01T01:42:31;18.67;;;9.98;;
25123;SDS011;13104;51.030;4.686;2023-03-01T01:50:08;15.27;;;9.05;;
25123;SDS011;13104;51.030;4.686;2023-03-01T01:52:40;15.55;;;9.77;;
25123;SDS011;13104;51.030;4.686;2023-03-01T01:55:14;15.23;;;9.43;;
25123;SDS011;13104;51.030;4.686;2023-03-01T01:57:41;15.85;;;8.77;;
25123;SDS011;13104;51.030;4.686;2023-03-01T02:00:11;14.48;;;9.82;;
25123;SDS011;13104;51.030;4.686;2023-03-01T02:02:37;13.95;;;9.38;;
25123;SDS011;13104;51.030;4.686;2023-03-01T02:07:39;17.95;;;9.40;;
25123;SDS011;13104;51.030;4.686;2023-03-01T02:10:06;13.30;;;9.70;;
25123;SDS011;13104;51.030;4.686;2023-03-01T02:12:32;13.43;;;9.65;;
25123;SDS011;13104;51.030;4.686;2023-03-01T02:14:58;15.30;;;9.48;;
25123;SDS011;13104;51.030;4.686;2023-03-01T02:17:24;16.58;;;10.02;;
25123;SDS011;13104;51.030;4.686;2023-03-01T02:19:58;14.60;;;9.82;;
25123;SDS011;13104;51.030;4.686;2023-03-01T02:22:30;16.13;;;9.68;;
25123;SDS011;13104;51.030;4.686;2023-03-01T02:27:25;18.02;;;9.80;;
25123;SDS011;13104;51.030;4.686;2023-03-01T02:29:52;17.17;;;9.98;;
25123;SDS011;13104;51.030;4.686;2023-03-01T02:32:18;17.55;;;10.07;;
25123;SDS011;13104;51.030;4.686;2023-03-01T02:34:51;18.33;;;9.02;;
25123;SDS011;13104;51.030;4.686;2023-03-01T02:37:17;15.77;;;9.75;;
25123;SDS011;13104;51.030;4.686;2023-03-01T02:39:51;15.05;;;9.55;;
25123;SDS011;13104;51.030;4.686;2023-03-01T02:42:21;17.02;;;9.27;;
25123;SDS011;13104;51.030;4.686;2023-03-01T02:44:49;16.48;;;9.68;;
25123;SDS011;13104;51.030;4.686;2023-03-01T02:47:15;16.70;;;9.55;;
25123;SDS011;13104;51.030;4.686;2023-03-01T02:49:41;18.40;;;9.93;;
25123;SDS011;13104;51.030;4.686;2023-03-01T02:57:00;15.40;;;9.80;;
25123;SDS011;13104;51.030;4.686;2023-03-01T02:59:28;15.30;;;9.48;;
25123;SDS011;13104;51.030;4.686;2023-03-01T03:01:54;16.75;;;10.43;;
25123;SDS011;13104;51.030;4.686;2023-03-01T03:04:21;16.98;;;9.88;;
25123;SDS011;13104;51.030;4.686;2023-03-01T03:06:48;17.42;;;10.00;;
25123;SDS011;13104;51.030;4.686;2023-03-01T03:09:15;19.42;;;9.77;;
25123;SDS011;13104;51.030;4.686;2023-03-01T03:11:41;16.17;;;9.63;;
25123;SDS011;13104;51.030;4.686;2023-03-01T03:14:08;16.40;;;9.88;;
25123;SDS011;13104;51.030;4.686;2023-03-01T03:16:41;16.40;;;10.30;;
25123;SDS011;13104;51.030;4.686;2023-03-01T03:19:08;14.80;;;9.30;;
25123;SDS011;13104;51.030;4.686;2023-03-01T03:21:34;14.40;;;9.00;;
25123;SDS011;13104;51.030;4.686;2023-03-01T03:24:01;15.45;;;9.82;;
25123;SDS011;13104;51.030;4.686;2023-03-01T03:26:27;15.02;;;9.60;;
25123;SDS011;13104;51.030;4.686;2023-03-01T03:28:53;19.70;;;9.50;;
25123;SDS011;13104;51.030;4.686;2023-03-01T03:31:19;17.23;;;10.30;;
25123;SDS011;13104;51.030;4.686;2023-03-01T03:33:46;13.90;;;9.85;;
25123;SDS011;13104;51.030;4.686;2023-03-01T03:36:16;16.75;;;10.02;;
25123;SDS011;13104;51.030;4.686;2023-03-01T03:38:43;17.10;;;10.38;;
25123;SDS011;13104;51.030;4.686;2023-03-01T03:41:10;15.63;;;10.05;;
25123;SDS011;13104;51.030;4.686;2023-03-01T03:43:37;15.85;;;10.57;;
25123;SDS011;13104;51.030;4.686;2023-03-01T03:46:04;17.63;;;9.52;;
25123;SDS011;13104;51.030;4.686;2023-03-01T03:48:31;15.80;;;10.00;;
25123;SDS011;13104;51.030;4.686;2023-03-01T03:50:58;16.27;;;10.18;;
25123;SDS011;13104;51.030;4.686;2023-03-01T03:53:25;20.35;;;10.27;;
25123;SDS011;13104;51.030;4.686;2023-03-01T03:55:51;20.20;;;11.02;;
25123;SDS011;13104;51.030;4.686;2023-03-01T03:58:18;16.25;;;10.07;;
25123;SDS011;13104;51.030;4.686;2023-03-01T04:00:45;16.50;;;9.73;;
25123;SDS011;13104;51.030;4.686;2023-03-01T04:03:12;15.23;;;10.13;;
25123;SDS011;13104;51.030;4.686;2023-03-01T04:05:39;17.48;;;10.63;;
25123;SDS011;13104;51.030;4.686;2023-03-01T04:08:06;18.77;;;10.00;;
25123;SDS011;13104;51.030;4.686;2023-03-01T04:10:39;15.57;;;10.65;;
25123;SDS011;13104;51.030;4.686;2023-03-01T04:13:06;12.60;;;8.20;;
25123;SDS011;13104;51.030;4.686;2023-03-01T04:15:32;17.23;;;9.88;;
25123;SDS011;13104;51.030;4.686;2023-03-01T04:17:59;18.45;;;10.18;;
25123;SDS011;13104;51.030;4.686;2023-03-01T04:20:29;17.77;;;9.80;;
25123;SDS011;13104;51.030;4.686;2023-03-01T04:25:29;15.82;;;9.55;;
25123;SDS011;13104;51.030;4.686;2023-03-01T04:27:55;17.90;;;10.15;;
25123;SDS011;13104;51.030;4.686;2023-03-01T04:30:22;16.63;;;10.73;;
25123;SDS011;13104;51.030;4.686;2023-03-01T04:32:50;18.52;;;11.10;;
25123;SDS011;13104;51.030;4.686;2023-03-01T04:35:16;18.10;;;9.90;;
25123;SDS011;13104;51.030;4.686;2023-03-01T04:37:42;17.65;;;10.18;;
25123;SDS011;13104;51.030;4.686;2023-03-01T04:40:11;17.00;;;10.50;;
25123;SDS011;13104;51.030;4.686;2023-03-01T04:42:40;16.85;;;9.82;;
25123;SDS011;13104;51.030;4.686;2023-03-01T04:45:07;16.02;;;9.77;;
25123;SDS011;13104;51.030;4.686;2023-03-01T04:47:39;16.05;;;10.25;;
25123;SDS011;13104;51.030;4.686;2023-03-01T04:50:06;15.15;;;9.43;;
25123;SDS011;13104;51.030;4.686;2023-03-01T04:52:33;15.75;;;9.77;;
25123;SDS011;13104;51.030;4.686;2023-03-01T04:54:59;20.60;;;10.32;;
25123;SDS011;13104;51.030;4.686;2023-03-01T04:57:25;16.05;;;10.02;;
25123;SDS011;13104;51.030;4.686;2023-03-01T04:59:52;19.95;;;9.73;;
25123;SDS011;13104;51.030;4.686;2023-03-01T05:02:18;15.20;;;10.43;;
25123;SDS011;13104;51.030;4.686;2023-03-01T05:04:44;15.23;;;9.38;;
25123;SDS011;13104;51.030;4.686;2023-03-01T05:07:10;18.88;;;9.98;;
25123;SDS011;13104;51.030;4.686;2023-03-01T05:09:38;14.63;;;9.18;;
25123;SDS011;13104;51.030;4.686;2023-03-01T05:12:04;15.95;;;10.02;;
25123;SDS011;13104;51.030;4.686;2023-03-01T05:14:30;18.25;;;9.45;;
25123;SDS011;13104;51.030;4.686;2023-03-01T05:16:56;19.63;;;10.13;;
25123;SDS011;13104;51.030;4.686;2023-03-01T05:19:29;19.80;;;9.25;;
25123;SDS011;13104;51.030;4.686;2023-03-01T05:21:56;13.30;;;9.23;;
25123;SDS011;13104;51.030;4.686;2023-03-01T05:24:33;15.43;;;9.88;;
25123;SDS011;13104;51.030;4.686;2023-03-01T05:26:59;17.92;;;10.00;;
25123;SDS011;13104;51.030;4.686;2023-03-01T05:29:26;17.48;;;9.90;;
25123;SDS011;13104;51.030;4.686;2023-03-01T05:31:58;22.00;;;9.85;;
25123;SDS011;13104;51.030;4.686;2023-03-01T05:36:50;14.15;;;8.73;;
25123;SDS011;13104;51.030;4.686;2023-03-01T05:39:18;16.25;;;9.57;;
25123;SDS011;13104;51.030;4.686;2023-03-01T05:41:46;16.33;;;10.05;;
25123;SDS011;13104;51.030;4.686;2023-03-01T05:44:13;20.42;;;10.13;;
25123;SDS011;13104;51.030;4.686;2023-03-01T05:46:39;14.05;;;9.13;;
25123;SDS011;13104;51.030;4.686;2023-03-01T05:49:05;17.45;;;9.57;;
25123;SDS011;13104;51.030;4.686;2023-03-01T05:51:32;14.00;;;9.18;;
25123;SDS011;13104;51.030;4.686;2023-03-01T05:53:59;17.38;;;9.60;;
25123;SDS011;13104;51.030;4.686;2023-03-01T05:56:25;17.33;;;9.75;;
25123;SDS011;13104;51.030;4.686;2023-03-01T05:58:51;16.60;;;9.80;;
25123;SDS011;13104;51.030;4.686;2023-03-01T06:01:17;13.85;;;9.25;;
25123;SDS011;13104;51.030;4.686;2023-03-01T06:03:43;16.35;;;9.88;;
25123;SDS011;13104;51.030;4.686;2023-03-01T06:06:09;20.23;;;10.02;;
25123;SDS011;13104;51.030;4.686;2023-03-01T06:08:35;13.65;;;9.10;;
25123;SDS011;13104;51.030;4.686;2023-03-01T06:11:02;17.23;;;9.45;;
25123;SDS011;13104;51.030;4.686;2023-03-01T06:13:28;18.90;;;10.15;;
25123;SDS011;13104;51.030;4.686;2023-03-01T06:15:54;16.60;;;9.60;;
25123;SDS011;13104;51.030;4.686;2023-03-01T06:18:21;19.83;;;10.95;;
25123;SDS011;13104;51.030;4.686;2023-03-01T06:20:52;16.83;;;9.63;;
25123;SDS011;13104;51.030;4.686;2023-03-01T06:23:18;17.77;;;10.63;;
25123;SDS011;13104;51.030;4.686;2023-03-01T06:25:45;20.52;;;9.98;;
25123;SDS011;13104;51.030;4.686;2023-03-01T06:28:11;15.32;;;9.40;;
25123;SDS011;13104;51.030;4.686;2023-03-01T06:30:37;18.10;;;9.77;;
25123;SDS011;13104;51.030;4.686;2023-03-01T06:33:03;16.08;;;9.68;;
25123;SDS011;13104;51.030;4.686;2023-03-01T06:35:29;17.60;;;10.73;;
25123;SDS011;13104;51.030;4.686;2023-03-01T06:37:57;18.85;;;10.25;;
25123;SDS011;13104;51.030;4.686;2023-03-01T06:40:23;17.58;;;10.95;;
25123;SDS011;13104;51.030;4.686;2023-03-01T06:42:50;17.48;;;9.98;;
25123;SDS011;13104;51.030;4.686;2023-03-01T06:45:17;18.73;;;10.10;;
25123;SDS011;13104;51.030;4.686;2023-03-01T06:47:44;15.93;;;10.13;;
25123;SDS011;13104;51.030;4.686;2023-03-01T06:50:10;17.25;;;10.32;;
25123;SDS011;13104;51.030;4.686;2023-03-01T06:52:37;16.42;;;10.20;;
25123;SDS011;13104;51.030;4.686;2023-03-01T06:55:04;18.17;;;10.13;;
25123;SDS011;13104;51.030;4.686;2023-03-01T06:57:30;17.75;;;10.60;;
25123;SDS011;13104;51.030;4.686;2023-03-01T06:59:57;23.83;;;10.18;;
25123;SDS011;13104;51.030;4.686;2023-03-01T07:02:23;24.92;;;10.52;;
25123;SDS011;13104;51.030;4.686;2023-03-01T07:04:49;18.00;;;10.93;;
25123;SDS011;13104;51.030;4.686;2023-03-01T07:07:16;19.70;;;10.63;;
25123;SDS011;13104;51.030;4.686;2023-03-01T07:09:43;22.55;;;10.52;;
25123;SDS011;13104;51.030;4.686;2023-03-01T07:12:09;18.50;;;10.98;;
25123;SDS011;13104;51.030;4.686;2023-03-01T07:14:35;19.00;;;10.30;;
25123;SDS011;13104;51.030;4.686;2023-03-01T07:17:01;20.58;;;11.45;;
25123;SDS011;13104;51.030;4.686;2023-03-01T07:19:27;22.13;;;10.93;;
25123;SDS011;13104;51.030;4.686;2023-03-01T07:21:54;15.90;;;10.00;;
25123;SDS011;13104;51.030;4.686;2023-03-01T07:24:20;23.35;;;11.13;;
25123;SDS011;13104;51.030;4.686;2023-03-01T07:26:50;21.77;;;11.05;;
25123;SDS011;13104;51.030;4.686;2023-03-01T07:29:17;19.70;;;10.73;;
25123;SDS011;13104;51.030;4.686;2023-03-01T07:31:43;18.00;;;10.10;;
25123;SDS011;13104;51.030;4.686;2023-03-01T07:34:09;20.02;;;10.73;;
25123;SDS011;13104;51.030;4.686;2023-03-01T07:36:36;17.50;;;11.10;;
25123;SDS011;13104;51.030;4.686;2023-03-01T07:39:02;18.23;;;10.98;;
25123;SDS011;13104;51.030;4.686;2023-03-01T07:41:28;18.98;;;11.32;;
25123;SDS011;13104;51.030;4.686;2023-03-01T07:47:00;18.35;;;10.57;;
25123;SDS011;13104;51.030;4.686;2023-03-01T07:49:29;17.98;;;11.18;;
25123;SDS011;13104;51.030;4.686;2023-03-01T07:51:58;23.13;;;11.43;;
25123;SDS011;13104;51.030;4.686;2023-03-01T07:54:27;18.00;;;11.05;;
25123;SDS011;13104;51.030;4.686;2023-03-01T07:56:56;14.82;;;10.18;;
25123;SDS011;13104;51.030;4.686;2023-03-01T07:59:26;21.05;;;10.80;;
25123;SDS011;13104;51.030;4.686;2023-03-01T08:01:57;19.00;;;10.60;;
25123;SDS011;13104;51.030;4.686;2023-03-01T08:04:23;20.40;;;11.23;;
25123;SDS011;13104;51.030;4.686;2023-03-01T08:06:54;19.85;;;10.75;;
25123;SDS011;13104;51.030;4.686;2023-03-01T08:09:20;20.00;;;10.93;;
25123;SDS011;13104;51.030;4.686;2023-03-01T08:11:46;19.38;;;11.40;;
25123;SDS011;13104;51.030;4.686;2023-03-01T08:14:13;20.38;;;11.35;;
25123;SDS011;13104;51.030;4.686;2023-03-01T08:16:41;20.98;;;11.43;;
25123;SDS011;13104;51.030;4.686;2023-03-01T08:19:07;19.50;;;11.52;;
25123;SDS011;13104;51.030;4.686;2023-03-01T08:21:34;20.77;;;10.73;;
25123;SDS011;13104;51.030;4.686;2023-03-01T08:24:01;20.17;;;11.27;;
25123;SDS011;13104;51.030;4.686;2023-03-01T08:26:27;20.38;;;11.88;;
25123;SDS011;13104;51.030;4.686;2023-03-01T08:28:53;23.40;;;11.45;;
25123;SDS011;13104;51.030;4.686;2023-03-01T08:31:20;19.55;;;11.07;;
25123;SDS011;13104;51.030;4.686;2023-03-01T08:33:47;21.02;;;11.63;;
25123;SDS011;13104;51.030;4.686;2023-03-01T08:36:16;23.08;;;12.30;;
25123;SDS011;13104;51.030;4.686;2023-03-01T08:38:43;21.50;;;11.00;;
25123;SDS011;13104;51.030;4.686;2023-03-01T08:41:10;20.58;;;11.63;;
25123;SDS011;13104;51.030;4.686;2023-03-01T08:43:36;21.15;;;11.52;;
25123;SDS011;13104;51.030;4.686;2023-03-01T08:46:03;22.20;;;11.18;;
25123;SDS011;13104;51.030;4.686;2023-03-01T08:48:29;20.67;;;12.38;;
25123;SDS011;13104;51.030;4.686;2023-03-01T08:50:57;20.80;;;11.65;;
25123;SDS011;13104;51.030;4.686;2023-03-01T08:53:32;21.35;;;12.00;;
25123;SDS011;13104;51.030;4.686;2023-03-01T08:55:59;20.77;;;12.25;;
25123;SDS011;13104;51.030;4.686;2023-03-01T08:58:27;23.52;;;11.77;;
25123;SDS011;13104;51.030;4.686;2023-03-01T09:00:53;17.05;;;11.65;;
25123;SDS011;13104;51.030;4.686;2023-03-01T09:03:21;18.35;;;11.48;;
25123;SDS011;13104;51.030;4.686;2023-03-01T09:05:47;19.27;;;10.95;;
25123;SDS011;13104;51.030;4.686;2023-03-01T09:08:15;18.25;;;10.95;;
25123;SDS011;13104;51.030;4.686;2023-03-01T09:10:41;17.77;;;10.95;;
25123;SDS011;13104;51.030;4.686;2023-03-01T09:13:07;19.70;;;10.82;;
25123;SDS011;13104;51.030;4.686;2023-03-01T09:15:33;18.50;;;10.65;;
25123;SDS011;13104;51.030;4.686;2023-03-01T09:18:00;18.13;;;9.85;;
25123;SDS011;13104;51.030;4.686;2023-03-01T09:20:26;18.10;;;11.02;;
25123;SDS011;13104;51.030;4.686;2023-03-01T09:22:52;18.60;;;11.02;;
25123;SDS011;13104;51.030;4.686;2023-03-01T09:25:18;19.73;;;11.30;;
25123;SDS011;13104;51.030;4.686;2023-03-01T09:27:44;20.30;;;11.45;;
25123;SDS011;13104;51.030;4.686;2023-03-01T09:30:10;20.02;;;10.50;;
25123;SDS011;13104;51.030;4.686;2023-03-01T09:32:36;15.50;;;10.07;;
25123;SDS011;13104;51.030;4.686;2023-03-01T09:35:07;15.43;;;10.27;;
25123;SDS011;13104;51.030;4.686;2023-03-01T09:37:34;16.73;;;10.35;;
25123;SDS011;13104;51.030;4.686;2023-03-01T09:40:00;17.30;;;9.80;;
25123;SDS011;13104;51.030;4.686;2023-03-01T09:42:28;16.60;;;10.40;;
25123;SDS011;13104;51.030;4.686;2023-03-01T09:45:00;15.02;;;10.20;;
25123;SDS011;13104;51.030;4.686;2023-03-01T09:47:28;17.85;;;10.35;;
25123;SDS011;13104;51.030;4.686;2023-03-01T09:55:13;17.80;;;10.15;;
25123;SDS011;13104;51.030;4.686;2023-03-01T09:58:00;13.50;;;7.72;;
25123;SDS011;13104;51.030;4.686;2023-03-01T10:10:58;18.15;;;10.55;;
25123;SDS011;13104;51.030;4.686;2023-03-01T10:16:11;17.75;;;10.65;;
25123;SDS011;13104;51.030;4.686;2023-03-01T10:18:39;17.60;;;10.52;;
25123;SDS011;13104;51.030;4.686;2023-03-01T10:21:14;19.13;;;10.60;;
25123;SDS011;13104;51.030;4.686;2023-03-01T10:28:54;17.63;;;9.98;;
25123;SDS011;13104;51.030;4.686;2023-03-01T10:31:24;18.60;;;10.27;;
25123;SDS011;13104;51.030;4.686;2023-03-01T10:33:53;16.70;;;9.85;;
25123;SDS011;13104;51.030;4.686;2023-03-01T10:36:20;17.42;;;9.57;;
25123;SDS011;13104;51.030;4.686;2023-03-01T10:38:54;14.50;;;9.88;;
25123;SDS011;13104;51.030;4.686;2023-03-01T10:41:22;17.33;;;10.45;;
25123;SDS011;13104;51.030;4.686;2023-03-01T10:43:58;16.65;;;10.00;;
25123;SDS011;13104;51.030;4.686;2023-03-01T10:46:32;14.95;;;9.48;;
25123;SDS011;13104;51.030;4.686;2023-03-01T10:49:06;10.00;;;6.53;;
25123;SDS011;13104;51.030;4.686;2023-03-01T10:51:33;11.85;;;7.43;;
25123;SDS011;13104;51.030;4.686;2023-03-01T10:53:59;16.20;;;9.80;;
25123;SDS011;13104;51.030;4.686;2023-03-01T10:56:25;14.85;;;9.35;;
25123;SDS011;13104;51.030;4.686;2023-03-01T10:59:04;16.40;;;9.15;;
25123;SDS011;13104;51.030;4.686;2023-03-01T11:01:35;16.83;;;9.13;;
25123;SDS011;13104;51.030;4.686;2023-03-01T11:06:33;15.40;;;9.80;;
25123;SDS011;13104;51.030;4.686;2023-03-01T11:09:13;17.33;;;9.27;;
25123;SDS011;13104;51.030;4.686;2023-03-01T11:11:40;14.10;;;8.98;;
25123;SDS011;13104;51.030;4.686;2023-03-01T11:16:40;18.30;;;10.23;;
25123;SDS011;13104;51.030;4.686;2023-03-01T11:21:40;17.52;;;10.55;;
25123;SDS011;13104;51.030;4.686;2023-03-01T11:24:10;15.85;;;9.90;;
25123;SDS011;13104;51.030;4.686;2023-03-01T11:26:39;15.82;;;9.32;;
25123;SDS011;13104;51.030;4.686;2023-03-01T11:29:10;15.90;;;9.75;;
25123;SDS011;13104;51.030;4.686;2023-03-01T11:31:38;15.82;;;10.10;;
25123;SDS011;13104;51.030;4.686;2023-03-01T11:34:13;13.25;;;9.32;;
25123;SDS011;13104;51.030;4.686;2023-03-01T11:36:44;16.48;;;9.93;;
25123;SDS011;13104;51.030;4.686;2023-03-01T11:39:17;14.55;;;9.65;;
25123;SDS011;13104;51.030;4.686;2023-03-01T11:41:44;16.48;;;10.10;;
25123;SDS011;13104;51.030;4.686;2023-03-01T11:44:15;13.85;;;9.20;;
25123;SDS011;13104;51.030;4.686;2023-03-01T12:12:30;15.18;;;9.35;;
25123;SDS011;13104;51.030;4.686;2023-03-01T12:15:24;14.85;;;9.52;;
25123;SDS011;13104;51.030;4.686;2023-03-01T12:21:09;16.08;;;9.75;;
25123;SDS011;13104;51.030;4.686;2023-03-01T12:37:13;18.95;;;10.60;;
25123;SDS011;13104;51.030;4.686;2023-03-01T12:39:24;14.18;;;9.73;;
25123;SDS011;13104;51.030;4.686;2023-03-01T12:49:40;13.80;;;9.00;;
25123;SDS011;13104;51.030;4.686;2023-03-01T12:54:43;16.17;;;9.70;;
25123;SDS011;13104;51.030;4.686;2023-03-01T12:59:39;14.32;;;9.43;;
25123;SDS011;13104;51.030;4.686;2023-03-01T13:02:22;16.20;;;10.30;;
25123;SDS011;13104;51.030;4.686;2023-03-01T13:04:52;16.38;;;9.32;;
25123;SDS011;13104;51.030;4.686;2023-03-01T13:07:30;14.60;;;9.35;;
25123;SDS011;13104;51.030;4.686;2023-03-01T13:12:43;16.13;;;9.90;;
25123;SDS011;13104;51.030;4.686;2023-03-01T13:17:54;15.63;;;9.75;;
25123;SDS011;13104;51.030;4.686;2023-03-01T13:20:21;19.30;;;9.82;;
25123;SDS011;13104;51.030;4.686;2023-03-01T13:22:49;15.65;;;10.23;;
25123;SDS011;13104;51.030;4.686;2023-03-01T13:25:26;16.77;;;10.27;;
25123;SDS011;13104;51.030;4.686;2023-03-01T13:27:52;16.92;;;9.68;;
25123;SDS011;13104;51.030;4.686;2023-03-01T13:30:39;17.40;;;9.85;;
25123;SDS011;13104;51.030;4.686;2023-03-01T13:35:50;15.50;;;10.15;;
25123;SDS011;13104;51.030;4.686;2023-03-01T13:41:02;21.88;;;9.75;;
25123;SDS011;13104;51.030;4.686;2023-03-01T13:43:33;15.20;;;9.98;;
25123;SDS011;13104;51.030;4.686;2023-03-01T13:46:00;14.75;;;10.23;;
25123;SDS011;13104;51.030;4.686;2023-03-01T13:48:28;18.05;;;10.85;;
25123;SDS011;13104;51.030;4.686;2023-03-01T13:51:08;18.75;;;10.40;;
25123;SDS011;13104;51.030;4.686;2023-03-01T13:53:40;14.30;;;9.18;;
25123;SDS011;13104;51.030;4.686;2023-03-01T13:56:09;13.63;;;9.43;;
25123;SDS011;13104;51.030;4.686;2023-03-01T13:58:53;15.00;;;8.98;;
25123;SDS011;13104;51.030;4.686;2023-03-01T14:03:46;16.73;;;10.05;;
25123;SDS011;13104;51.030;4.686;2023-03-01T14:06:14;13.85;;;9.50;;
25123;SDS011;13104;51.030;4.686;2023-03-01T14:08:44;14.75;;;10.02;;
25123;SDS011;13104;51.030;4.686;2023-03-01T14:16:34;14.55;;;9.60;;
25123;SDS011;13104;51.030;4.686;2023-03-01T14:21:29;18.27;;;10.50;;
25123;SDS011;13104;51.030;4.686;2023-03-01T14:23:55;17.23;;;10.35;;
25123;SDS011;13104;51.030;4.686;2023-03-01T14:26:22;16.15;;;9.75;;
25123;SDS011;13104;51.030;4.686;2023-03-01T14:28:49;18.45;;;10.27;;
25123;SDS011;13104;51.030;4.686;2023-03-01T14:31:32;19.30;;;11.15;;
25123;SDS011;13104;51.030;4.686;2023-03-01T14:34:00;18.55;;;10.55;;
25123;SDS011;13104;51.030;4.686;2023-03-01T14:36:30;14.48;;;9.40;;
25123;SDS011;13104;51.030;4.686;2023-03-01T14:38:57;16.65;;;10.38;;
25123;SDS011;13104;51.030;4.686;2023-03-01T14:41:29;16.38;;;9.90;;
25123;SDS011;13104;51.030;4.686;2023-03-01T14:44:06;16.15;;;10.30;;
25123;SDS011;13104;51.030;4.686;2023-03-01T14:46:37;16.92;;;10.32;;
25123;SDS011;13104;51.030;4.686;2023-03-01T14:49:10;14.25;;;9.93;;
25123;SDS011;13104;51.030;4.686;2023-03-01T14:51:37;15.77;;;9.32;;
25123;SDS011;13104;51.030;4.686;2023-03-01T14:54:05;16.30;;;9.88;;
25123;SDS011;13104;51.030;4.686;2023-03-01T14:56:43;16.40;;;9.90;;
25123;SDS011;13104;51.030;4.686;2023-03-01T14:59:09;15.43;;;9.70;;
25123;SDS011;13104;51.030;4.686;2023-03-01T15:01:35;14.80;;;9.45;;
25123;SDS011;13104;51.030;4.686;2023-03-01T15:04:01;15.38;;;9.68;;
25123;SDS011;13104;51.030;4.686;2023-03-01T15:06:28;14.05;;;9.25;;
25123;SDS011;13104;51.030;4.686;2023-03-01T15:08:54;15.70;;;9.45;;
25123;SDS011;13104;51.030;4.686;2023-03-01T15:11:31;15.10;;;10.05;;
25123;SDS011;13104;51.030;4.686;2023-03-01T15:13:58;14.23;;;9.75;;
25123;SDS011;13104;51.030;4.686;2023-03-01T15:16:25;13.95;;;8.90;;
25123;SDS011;13104;51.030;4.686;2023-03-01T15:18:56;17.83;;;10.30;;
25123;SDS011;13104;51.030;4.686;2023-03-01T15:21:23;14.27;;;9.60;;
25123;SDS011;13104;51.030;4.686;2023-03-01T15:23:54;14.82;;;9.32;;
25123;SDS011;13104;51.030;4.686;2023-03-01T15:26:31;13.20;;;8.70;;
25123;SDS011;13104;51.030;4.686;2023-03-01T15:28:59;16.90;;;9.35;;
25123;SDS011;13104;51.030;4.686;2023-03-01T15:31:36;14.20;;;8.93;;
25123;SDS011;13104;51.030;4.686;2023-03-01T15:36:48;13.70;;;8.73;;
25123;SDS011;13104;51.030;4.686;2023-03-01T15:39:31;11.60;;;8.27;;
25123;SDS011;13104;51.030;4.686;2023-03-01T15:42:02;16.25;;;7.75;;
25123;SDS011;13104;51.030;4.686;2023-03-01T15:44:35;13.30;;;8.18;;
25123;SDS011;13104;51.030;4.686;2023-03-01T15:47:01;14.90;;;8.45;;
25123;SDS011;13104;51.030;4.686;2023-03-01T15:51:54;13.23;;;8.40;;
25123;SDS011;13104;51.030;4.686;2023-03-01T15:54:22;12.95;;;8.15;;
25123;SDS011;13104;51.030;4.686;2023-03-01T15:56:49;10.18;;;7.80;;
25123;SDS011;13104;51.030;4.686;2023-03-01T15:59:15;13.52;;;7.95;;
25123;SDS011;13104;51.030;4.686;2023-03-01T16:01:42;12.50;;;8.05;;
25123;SDS011;13104;51.030;4.686;2023-03-01T16:04:09;10.85;;;7.32;;
25123;SDS011;13104;51.030;4.686;2023-03-01T16:06:38;12.48;;;7.82;;
25123;SDS011;13104;51.030;4.686;2023-03-01T16:09:12;13.45;;;7.82;;
25123;SDS011;13104;51.030;4.686;2023-03-01T16:11:45;14.25;;;8.00;;
25123;SDS011;13104;51.030;4.686;2023-03-01T16:14:11;14.57;;;8.02;;
25123;SDS011;13104;51.030;4.686;2023-03-01T16:16:37;14.40;;;8.23;;
25123;SDS011;13104;51.030;4.686;2023-03-01T16:19:04;13.18;;;7.63;;
25123;SDS011;13104;51.030;4.686;2023-03-01T16:21:30;14.70;;;7.93;;
25123;SDS011;13104;51.030;4.686;2023-03-01T16:23:56;13.82;;;7.93;;
25123;SDS011;13104;51.030;4.686;2023-03-01T16:26:25;15.00;;;8.10;;
25123;SDS011;13104;51.030;4.686;2023-03-01T16:28:53;14.63;;;8.75;;
25123;SDS011;13104;51.030;4.686;2023-03-01T16:31:21;16.55;;;8.40;;
25123;SDS011;13104;51.030;4.686;2023-03-01T16:33:47;13.25;;;8.02;;
25123;SDS011;13104;51.030;4.686;2023-03-01T16:36:14;14.70;;;8.05;;
25123;SDS011;13104;51.030;4.686;2023-03-01T16:38:42;11.98;;;7.95;;
25123;SDS011;13104;51.030;4.686;2023-03-01T16:41:12;13.15;;;7.93;;
25123;SDS011;13104;51.030;4.686;2023-03-01T16:43:38;13.50;;;7.75;;
25123;SDS011;13104;51.030;4.686;2023-03-01T16:46:22;12.18;;;8.10;;
25123;SDS011;13104;51.030;4.686;2023-03-01T16:48:48;11.63;;;7.60;;
25123;SDS011;13104;51.030;4.686;2023-03-01T16:51:14;12.80;;;8.35;;